createdAt,value
2022-12-13T00:14:28.469Z,75.81
2022-12-13T00:19:25.441Z,75.69
2022-12-13T00:24:22.454Z,75.98
2022-12-13T00:29:19.666Z,75.63
2022-12-13T00:34:18.325Z,75.76
2022-12-13T00:39:15.980Z,75.46
2022-12-13T00:44:14.479Z,75.15
2022-12-13T00:49:12.462Z,75.12
2022-12-13T00:54:10.483Z,74.81
2022-12-13T00:59:08.166Z,74.18
2022-12-13T01:04:06.301Z,73.87
2022-12-13T01:09:04.329Z,74.51
2022-12-13T01:14:01.977Z,74.67
2022-12-13T01:18:59.048Z,74.68
2022-12-13T01:24:01.325Z,74.63
2022-12-13T01:28:58.805Z,74.33
2022-12-13T01:33:56.825Z,74.29
2022-12-13T01:38:53.743Z,74.18
2022-12-13T01:44:00.421Z,74.26
2022-12-13T01:49:06.079Z,74.25
2022-12-13T01:54:23.528Z,73.77
2022-12-13T01:59:22.739Z,73.67
2022-12-13T02:04:29.582Z,74.31
2022-12-13T02:09:26.848Z,73.74
2022-12-13T02:14:23.861Z,73.29
2022-12-13T02:19:58.498Z,73.26
2022-12-13T02:25:12.766Z,72.87
2022-12-13T02:30:34.746Z,72.42
2022-12-13T02:35:40.085Z,72.96
2022-12-13T02:40:41.985Z,72.59
2022-12-13T02:45:45.307Z,72.18
2022-12-13T02:50:43.138Z,72.49
2022-12-13T02:55:40.312Z,72.58
2022-12-13T03:00:51.261Z,71.33
2022-12-13T03:06:23.685Z,71.50
2022-12-13T03:11:23.625Z,71.38
2022-12-13T03:16:34.028Z,71.68
2022-12-13T03:21:43.953Z,71.13
2022-12-13T03:26:44.492Z,71.41
2022-12-13T03:31:42.117Z,71.39
2022-12-13T03:36:39.379Z,71.40
2022-12-13T03:41:36.380Z,71.56
2022-12-13T03:46:33.726Z,71.39
2022-12-13T03:51:31.439Z,71.21
2022-12-13T03:56:28.526Z,71.27
2022-12-13T04:01:25.503Z,70.58
2022-12-13T04:06:25.405Z,70.75
2022-12-13T04:11:43.514Z,70.79
2022-12-13T04:16:40.372Z,70.83
2022-12-13T04:21:37.344Z,70.88
2022-12-13T04:26:34.827Z,70.82
2022-12-13T04:31:31.913Z,71.15
2022-12-13T04:36:31.995Z,70.67
2022-12-13T04:41:34.996Z,71.29
2022-12-13T04:46:33.029Z,70.85
2022-12-13T04:51:31.961Z,70.86
2022-12-13T04:56:28.907Z,70.20
2022-12-13T05:01:26.033Z,70.75
2022-12-13T05:06:26.293Z,70.09
2022-12-13T05:11:24.936Z,70.27
2022-12-13T05:16:24.885Z,70.58
2022-12-13T05:21:21.804Z,70.74
2022-12-13T05:26:19.694Z,70.74
2022-12-13T05:31:23.079Z,70.58
2022-12-13T05:36:24.727Z,70.12
2022-12-13T05:41:24.873Z,70.49
2022-12-13T05:46:21.950Z,70.94
2022-12-13T05:51:18.967Z,70.58
2022-12-13T05:56:22.644Z,70.59
2022-12-13T06:01:21.223Z,70.85
2022-12-13T06:06:18.278Z,70.90
2022-12-13T06:11:31.043Z,71.08
2022-12-13T06:16:32.077Z,71.00
2022-12-13T06:21:43.456Z,70.85
2022-12-13T06:26:45.094Z,70.72
2022-12-13T06:31:43.900Z,70.35
2022-12-13T06:36:42.490Z,70.47
2022-12-13T06:41:42.328Z,70.70
2022-12-13T06:46:40.749Z,70.51
2022-12-13T06:51:38.786Z,70.01
2022-12-13T06:56:36.543Z,70.55
2022-12-13T07:01:37.598Z,70.52
2022-12-13T07:06:35.498Z,70.83
2022-12-13T07:11:36.646Z,70.00
2022-12-13T07:16:33.635Z,70.34
2022-12-13T07:21:31.441Z,70.20
2022-12-13T07:26:28.329Z,69.72
2022-12-13T07:31:26.650Z,70.07
2022-12-13T07:36:23.939Z,69.22
2022-12-13T07:41:24.098Z,69.83
2022-12-13T07:46:25.996Z,68.82
2022-12-13T07:51:32.774Z,69.25
2022-12-13T07:56:33.164Z,69.86
2022-12-13T08:01:31.753Z,69.48
2022-12-13T08:06:28.708Z,69.86
2022-12-13T08:11:26.738Z,69.49
2022-12-13T08:16:28.412Z,69.29
2022-12-13T08:21:52.833Z,69.46
2022-12-13T08:26:45.499Z,69.46
2022-12-13T08:31:42.729Z,68.81
2022-12-13T08:36:40.847Z,69.30
2022-12-13T08:41:39.427Z,67.72
2022-12-13T08:46:37.143Z,67.91
2022-12-13T08:51:35.772Z,67.80
2022-12-13T08:56:35.581Z,68.05
2022-12-13T09:01:33.218Z,67.92
2022-12-13T09:06:31.280Z,68.66
2022-12-13T09:11:34.565Z,68.07
2022-12-13T09:16:37.353Z,67.25
2022-12-13T09:21:36.860Z,68.76
2022-12-13T09:27:27.179Z,69.20
2022-12-13T09:32:33.648Z,68.55
2022-12-13T09:37:34.555Z,68.31
2022-12-13T09:42:34.595Z,68.87
2022-12-13T09:47:36.116Z,68.06
2022-12-13T09:52:39.029Z,68.22
2022-12-13T09:57:36.667Z,68.23
2022-12-13T10:02:42.445Z,67.28
2022-12-13T10:07:40.593Z,67.27
2022-12-13T10:12:39.118Z,67.63
2022-12-13T10:17:41.448Z,67.19
2022-12-13T10:22:39.400Z,67.71
2022-12-13T10:27:38.596Z,67.66
2022-12-13T10:32:54.350Z,67.02
2022-12-13T10:37:58.369Z,68.04
2022-12-13T10:43:07.498Z,67.16
2022-12-13T10:48:28.135Z,65.41
2022-12-13T10:53:32.995Z,64.50
2022-12-13T10:58:39.049Z,65.41
2022-12-13T11:03:40.612Z,65.96
2022-12-13T11:08:39.275Z,65.85
2022-12-13T11:13:39.156Z,65.28
2022-12-13T11:18:39.918Z,65.63
2022-12-13T11:23:43.636Z,64.72
2022-12-13T11:29:09.429Z,64.02
2022-12-13T11:34:23.606Z,65.15
2022-12-13T11:39:29.670Z,64.47
2022-12-13T11:44:36.035Z,63.33
2022-12-13T11:49:38.784Z,63.99
2022-12-13T11:54:51.164Z,63.22
2022-12-13T11:59:54.867Z,64.50
2022-12-13T12:05:07.016Z,64.27
2022-12-13T12:10:24.445Z,62.92
2022-12-13T12:15:33.625Z,62.22
2022-12-13T12:21:05.565Z,62.05
2022-12-13T12:26:26.243Z,62.53
2022-12-13T12:31:34.301Z,64.55
2022-12-13T12:37:03.487Z,63.33
2022-12-13T12:42:23.972Z,63.31
2022-12-13T12:53:24.816Z,63.37
2022-12-13T12:58:34.299Z,64.24
2022-12-13T13:03:36.385Z,64.58
2022-12-13T13:08:41.054Z,64.02
2022-12-13T13:13:49.424Z,64.33
2022-12-13T13:18:51.250Z,63.26
2022-12-13T13:23:48.688Z,63.73
2022-12-13T13:28:46.914Z,63.80
2022-12-13T13:33:47.527Z,63.02
2022-12-13T13:38:52.249Z,63.51
2022-12-13T13:43:53.125Z,63.19
2022-12-13T13:48:59.668Z,62.45
2022-12-13T13:54:28.669Z,62.36
2022-12-13T14:00:03.140Z,63.42
2022-12-13T14:05:42.648Z,64.05
2022-12-13T14:10:52.164Z,64.00
2022-12-13T14:16:26.202Z,63.78
2022-12-13T14:21:33.852Z,64.88
2022-12-13T14:27:10.919Z,64.89
2022-12-13T14:32:10.830Z,64.96
2022-12-13T14:37:29.862Z,65.75
2022-12-13T14:42:33.247Z,66.46
2022-12-13T14:47:30.803Z,66.55
2022-12-13T14:52:35.614Z,66.36
2022-12-13T14:57:37.334Z,66.75
2022-12-13T15:02:36.698Z,67.19
2022-12-13T15:07:38.627Z,67.18
2022-12-13T15:12:38.150Z,67.87
2022-12-13T15:18:01.843Z,68.04
2022-12-13T15:23:40.343Z,68.05
2022-12-13T15:28:50.810Z,68.46
2022-12-13T15:33:52.439Z,68.29
2022-12-13T15:39:18.742Z,68.55
2022-12-13T15:44:23.296Z,68.73
2022-12-13T15:49:27.374Z,68.33
2022-12-13T15:54:28.218Z,69.23
2022-12-13T15:59:27.785Z,68.99
2022-12-13T16:04:27.625Z,69.02
2022-12-13T16:09:28.350Z,69.27
2022-12-13T16:14:39.514Z,68.36
2022-12-13T16:19:36.430Z,68.73
2022-12-13T16:24:36.962Z,68.58
2022-12-13T16:29:34.095Z,68.60
2022-12-13T16:34:32.012Z,68.80
2022-12-13T16:39:29.207Z,68.75
2022-12-13T16:44:35.238Z,69.57
2022-12-13T16:49:43.312Z,69.11
2022-12-13T16:54:42.868Z,69.40
2022-12-13T16:59:41.373Z,69.05
2022-12-13T17:04:40.972Z,69.36
2022-12-13T17:09:38.789Z,68.76
2022-12-13T17:14:36.493Z,69.41
2022-12-13T17:19:34.476Z,69.27
2022-12-13T17:24:31.486Z,69.39
2022-12-13T17:29:30.586Z,69.72
2022-12-13T17:34:27.695Z,70.33
2022-12-13T17:39:25.609Z,69.93
2022-12-13T17:44:23.998Z,70.26
2022-12-13T17:49:21.257Z,70.68
2022-12-13T17:54:18.956Z,69.11
2022-12-13T17:59:20.146Z,69.98
2022-12-13T18:04:19.856Z,70.03
2022-12-13T18:09:16.902Z,70.68
2022-12-13T18:14:22.922Z,70.52
2022-12-13T18:19:21.231Z,70.57
2022-12-13T18:24:18.319Z,70.96
2022-12-13T18:29:15.804Z,70.17
2022-12-13T18:34:15.291Z,70.22
2022-12-13T18:39:13.337Z,70.58
2022-12-13T18:44:14.125Z,70.23
2022-12-13T18:49:11.316Z,70.53
2022-12-13T18:54:15.466Z,70.64
2022-12-13T18:59:14.649Z,70.56
2022-12-13T19:04:12.051Z,70.76
2022-12-13T19:09:09.132Z,70.87
2022-12-13T19:14:06.319Z,71.08
2022-12-13T19:19:09.228Z,70.54
2022-12-13T19:24:10.806Z,70.54
2022-12-13T19:29:08.260Z,69.21
2022-12-13T19:34:11.054Z,68.95
2022-12-13T19:39:11.029Z,68.83
2022-12-13T19:44:25.700Z,69.70
2022-12-13T19:49:24.785Z,69.09
2022-12-13T19:54:26.227Z,70.04
2022-12-13T19:59:27.977Z,69.90
2022-12-13T20:04:35.572Z,70.25
2022-12-13T20:09:36.631Z,69.84
2022-12-13T20:14:36.047Z,69.62
2022-12-13T20:19:39.691Z,69.73
2022-12-13T20:24:37.055Z,69.29
2022-12-13T20:29:40.630Z,68.87
2022-12-13T20:34:42.035Z,69.37
2022-12-13T20:39:41.816Z,68.41
2022-12-13T20:44:44.476Z,68.85
2022-12-13T20:49:48.396Z,68.62
2022-12-13T20:54:46.389Z,68.56
2022-12-13T20:59:43.837Z,68.38
2022-12-13T21:04:44.830Z,65.48
2022-12-13T21:09:44.612Z,66.15
2022-12-13T21:14:41.873Z,66.61
2022-12-13T21:19:40.691Z,67.22
2022-12-13T21:24:41.198Z,66.92
2022-12-13T21:29:38.258Z,66.87
2022-12-13T21:34:39.370Z,66.31
2022-12-13T21:39:36.649Z,65.78
2022-12-13T21:44:36.500Z,66.47
2022-12-13T21:50:04.654Z,65.54
2022-12-13T21:55:37.856Z,66.37
2022-12-13T22:00:25.480Z,67.02
2022-12-13T22:05:22.586Z,66.87
2022-12-13T22:10:19.626Z,66.04
2022-12-13T22:15:16.762Z,66.33
2022-12-13T22:20:18.198Z,66.38
2022-12-13T22:25:15.439Z,66.50
2022-12-13T22:30:13.419Z,67.00
2022-12-13T22:35:11.310Z,66.02
2022-12-13T22:40:10.678Z,66.35
2022-12-13T22:45:08.484Z,66.17
2022-12-13T22:50:06.515Z,66.63
2022-12-13T22:55:04.362Z,66.38
2022-12-13T23:00:02.450Z,66.34
2022-12-13T23:04:59.486Z,65.76
2022-12-13T23:09:56.847Z,65.06
2022-12-13T23:14:53.745Z,64.58
2022-12-13T23:19:53.443Z,65.29
2022-12-13T23:24:51.548Z,65.78
2022-12-13T23:29:48.978Z,66.44
2022-12-13T23:34:45.981Z,65.50
2022-12-13T23:39:43.648Z,65.83
2022-12-13T23:44:41.603Z,65.41
2022-12-13T23:49:38.542Z,65.93
2022-12-13T23:54:35.667Z,65.76
2022-12-13T23:59:33.441Z,64.39
